sensor_id;sensor_type;location;lat;lon;timestamp;P1;durP1;ratioP1;P2;durP2;ratioP2
47896;SDS011;39629;51.400;5.494;2023-07-13T00:03:21;2.63;;;0.90;;
47896;SDS011;39629;51.400;5.494;2023-07-13T00:08:23;3.45;;;0.88;;
47896;SDS011;39629;51.400;5.494;2023-07-13T00:13:26;2.90;;;0.90;;
47896;SDS011;39629;51.400;5.494;2023-07-13T00:18:29;2.75;;;0.80;;
47896;SDS011;39629;51.400;5.494;2023-07-13T00:23:31;7.70;;;0.90;;
47896;SDS011;39629;51.400;5.494;2023-07-13T00:28:36;3.70;;;0.88;;
47896;SDS011;39629;51.400;5.494;2023-07-13T00:33:40;3.72;;;0.75;;
47896;SDS011;39629;51.400;5.494;2023-07-13T00:38:42;2.75;;;0.80;;
47896;SDS011;39629;51.400;5.494;2023-07-13T00:43:46;2.90;;;0.70;;
47896;SDS011;39629;51.400;5.494;2023-07-13T00:48:48;1.33;;;0.67;;
47896;SDS011;39629;51.400;5.494;2023-07-13T00:53:52;2.60;;;0.70;;
47896;SDS011;39629;51.400;5.494;2023-07-13T00:58:57;3.78;;;0.80;;
47896;SDS011;39629;51.400;5.494;2023-07-13T01:04:01;3.85;;;1.02;;
47896;SDS011;39629;51.400;5.494;2023-07-13T01:09:03;4.07;;;0.70;;
47896;SDS011;39629;51.400;5.494;2023-07-13T01:19:12;1.92;;;0.70;;
47896;SDS011;39629;51.400;5.494;2023-07-13T01:24:38;2.63;;;0.70;;
47896;SDS011;39629;51.400;5.494;2023-07-13T01:29:43;3.35;;;0.73;;
47896;SDS011;39629;51.400;5.494;2023-07-13T01:34:47;3.65;;;0.80;;
47896;SDS011;39629;51.400;5.494;2023-07-13T01:39:52;2.70;;;0.77;;
47896;SDS011;39629;51.400;5.494;2023-07-13T01:44:55;2.38;;;0.75;;
47896;SDS011;39629;51.400;5.494;2023-07-13T01:49:57;3.28;;;0.70;;
47896;SDS011;39629;51.400;5.494;2023-07-13T01:55:01;2.92;;;0.90;;
47896;SDS011;39629;51.400;5.494;2023-07-13T02:00:04;1.98;;;0.90;;
47896;SDS011;39629;51.400;5.494;2023-07-13T02:05:16;4.03;;;0.82;;
47896;SDS011;39629;51.400;5.494;2023-07-13T02:10:19;4.95;;;0.80;;
47896;SDS011;39629;51.400;5.494;2023-07-13T02:15:22;2.90;;;0.70;;
47896;SDS011;39629;51.400;5.494;2023-07-13T02:20:23;1.92;;;0.63;;
47896;SDS011;39629;51.400;5.494;2023-07-13T02:25:28;5.63;;;1.00;;
47896;SDS011;39629;51.400;5.494;2023-07-13T02:30:30;2.55;;;1.00;;
47896;SDS011;39629;51.400;5.494;2023-07-13T02:35:32;2.22;;;0.80;;
47896;SDS011;39629;51.400;5.494;2023-07-13T02:40:35;4.28;;;0.70;;
47896;SDS011;39629;51.400;5.494;2023-07-13T02:45:38;3.72;;;0.90;;
47896;SDS011;39629;51.400;5.494;2023-07-13T02:50:45;4.20;;;1.17;;
47896;SDS011;39629;51.400;5.494;2023-07-13T02:55:48;5.63;;;1.25;;
47896;SDS011;39629;51.400;5.494;2023-07-13T03:00:51;5.73;;;1.00;;
47896;SDS011;39629;51.400;5.494;2023-07-13T03:05:58;6.25;;;1.17;;
47896;SDS011;39629;51.400;5.494;2023-07-13T03:11:06;5.28;;;0.80;;
47896;SDS011;39629;51.400;5.494;2023-07-13T03:16:14;3.70;;;1.00;;
47896;SDS011;39629;51.400;5.494;2023-07-13T03:21:19;3.80;;;0.90;;
47896;SDS011;39629;51.400;5.494;2023-07-13T03:26:23;5.97;;;1.00;;
47896;SDS011;39629;51.400;5.494;2023-07-13T03:31:25;3.17;;;1.40;;
47896;SDS011;39629;51.400;5.494;2023-07-13T03:36:31;4.70;;;1.10;;
47896;SDS011;39629;51.400;5.494;2023-07-13T03:41:39;6.70;;;1.20;;
47896;SDS011;39629;51.400;5.494;2023-07-13T03:46:41;6.10;;;1.10;;
47896;SDS011;39629;51.400;5.494;2023-07-13T03:51:44;5.65;;;1.17;;
47896;SDS011;39629;51.400;5.494;2023-07-13T03:56:47;3.10;;;0.90;;
47896;SDS011;39629;51.400;5.494;2023-07-13T04:01:51;2.42;;;1.10;;
47896;SDS011;39629;51.400;5.494;2023-07-13T04:06:53;4.53;;;1.42;;
47896;SDS011;39629;51.400;5.494;2023-07-13T04:11:56;8.13;;;1.30;;
47896;SDS011;39629;51.400;5.494;2023-07-13T04:17:01;5.68;;;1.20;;
47896;SDS011;39629;51.400;5.494;2023-07-13T04:22:04;7.18;;;1.58;;
47896;SDS011;39629;51.400;5.494;2023-07-13T04:27:07;5.68;;;1.67;;
47896;SDS011;39629;51.400;5.494;2023-07-13T04:32:09;4.90;;;1.52;;
47896;SDS011;39629;51.400;5.494;2023-07-13T04:37:11;9.35;;;1.88;;
47896;SDS011;39629;51.400;5.494;2023-07-13T04:42:14;8.35;;;1.95;;
47896;SDS011;39629;51.400;5.494;2023-07-13T04:47:17;7.53;;;1.83;;
47896;SDS011;39629;51.400;5.494;2023-07-13T04:52:19;5.25;;;2.00;;
47896;SDS011;39629;51.400;5.494;2023-07-13T04:57:23;8.55;;;2.08;;
47896;SDS011;39629;51.400;5.494;2023-07-13T05:02:25;10.07;;;2.43;;
47896;SDS011;39629;51.400;5.494;2023-07-13T05:07:29;9.65;;;2.70;;
47896;SDS011;39629;51.400;5.494;2023-07-13T05:12:36;9.70;;;2.22;;
47896;SDS011;39629;51.400;5.494;2023-07-13T05:17:37;8.38;;;2.05;;
47896;SDS011;39629;51.400;5.494;2023-07-13T05:22:40;8.90;;;2.40;;
47896;SDS011;39629;51.400;5.494;2023-07-13T05:27:44;9.18;;;2.45;;
47896;SDS011;39629;51.400;5.494;2023-07-13T05:32:47;8.07;;;2.85;;
47896;SDS011;39629;51.400;5.494;2023-07-13T05:37:49;11.57;;;2.25;;
47896;SDS011;39629;51.400;5.494;2023-07-13T05:42:52;9.40;;;2.15;;
47896;SDS011;39629;51.400;5.494;2023-07-13T05:47:54;14.05;;;2.72;;
47896;SDS011;39629;51.400;5.494;2023-07-13T05:52:56;7.43;;;1.88;;
47896;SDS011;39629;51.400;5.494;2023-07-13T05:58:00;5.95;;;2.03;;
47896;SDS011;39629;51.400;5.494;2023-07-13T06:08:04;4.53;;;1.77;;
47896;SDS011;39629;51.400;5.494;2023-07-13T06:13:08;7.70;;;2.40;;
47896;SDS011;39629;51.400;5.494;2023-07-13T06:18:10;9.07;;;2.63;;
47896;SDS011;39629;51.400;5.494;2023-07-13T06:23:12;6.93;;;2.22;;
47896;SDS011;39629;51.400;5.494;2023-07-13T06:28:16;12.75;;;2.72;;
47896;SDS011;39629;51.400;5.494;2023-07-13T06:33:17;12.90;;;2.90;;
47896;SDS011;39629;51.400;5.494;2023-07-13T06:38:20;11.32;;;3.00;;
47896;SDS011;39629;51.400;5.494;2023-07-13T06:43:23;9.82;;;2.75;;
47896;SDS011;39629;51.400;5.494;2023-07-13T06:48:26;12.10;;;2.97;;
47896;SDS011;39629;51.400;5.494;2023-07-13T06:53:28;8.30;;;3.05;;
47896;SDS011;39629;51.400;5.494;2023-07-13T06:58:33;9.20;;;2.60;;
47896;SDS011;39629;51.400;5.494;2023-07-13T07:03:35;6.95;;;2.35;;
47896;SDS011;39629;51.400;5.494;2023-07-13T07:08:37;9.90;;;2.80;;
47896;SDS011;39629;51.400;5.494;2023-07-13T07:13:40;11.10;;;2.75;;
47896;SDS011;39629;51.400;5.494;2023-07-13T07:18:42;7.37;;;2.63;;
47896;SDS011;39629;51.400;5.494;2023-07-13T07:23:45;6.40;;;2.30;;
47896;SDS011;39629;51.400;5.494;2023-07-13T07:28:48;8.80;;;2.25;;
47896;SDS011;39629;51.400;5.494;2023-07-13T07:33:50;6.57;;;2.30;;
47896;SDS011;39629;51.400;5.494;2023-07-13T07:38:52;13.80;;;2.40;;
47896;SDS011;39629;51.400;5.494;2023-07-13T07:43:55;8.27;;;2.10;;
47896;SDS011;39629;51.400;5.494;2023-07-13T07:48:57;7.40;;;2.30;;
47896;SDS011;39629;51.400;5.494;2023-07-13T07:53:59;8.13;;;2.30;;
47896;SDS011;39629;51.400;5.494;2023-07-13T07:59:03;7.55;;;2.40;;
47896;SDS011;39629;51.400;5.494;2023-07-13T08:04:05;9.13;;;2.50;;
47896;SDS011;39629;51.400;5.494;2023-07-13T08:09:07;5.15;;;1.95;;
47896;SDS011;39629;51.400;5.494;2023-07-13T08:14:10;10.95;;;2.63;;
47896;SDS011;39629;51.400;5.494;2023-07-13T08:19:12;9.10;;;2.30;;
47896;SDS011;39629;51.400;5.494;2023-07-13T08:24:14;7.43;;;2.45;;
47896;SDS011;39629;51.400;5.494;2023-07-13T08:29:20;8.95;;;1.90;;
47896;SDS011;39629;51.400;5.494;2023-07-13T08:34:21;7.60;;;2.20;;
47896;SDS011;39629;51.400;5.494;2023-07-13T08:39:23;10.68;;;1.98;;
47896;SDS011;39629;51.400;5.494;2023-07-13T08:44:30;5.72;;;1.75;;
47896;SDS011;39629;51.400;5.494;2023-07-13T08:49:41;6.93;;;1.73;;
47896;SDS011;39629;51.400;5.494;2023-07-13T08:54:45;5.32;;;1.60;;
47896;SDS011;39629;51.400;5.494;2023-07-13T08:59:53;4.00;;;1.60;;
47896;SDS011;39629;51.400;5.494;2023-07-13T09:04:56;4.97;;;1.73;;
47896;SDS011;39629;51.400;5.494;2023-07-13T09:10:05;6.88;;;1.77;;
47896;SDS011;39629;51.400;5.494;2023-07-13T09:15:21;5.65;;;1.60;;
47896;SDS011;39629;51.400;5.494;2023-07-13T09:20:27;5.88;;;1.70;;
47896;SDS011;39629;51.400;5.494;2023-07-13T09:25:35;6.97;;;1.70;;
47896;SDS011;39629;51.400;5.494;2023-07-13T09:30:42;3.80;;;1.40;;
47896;SDS011;39629;51.400;5.494;2023-07-13T09:35:49;5.32;;;1.60;;
47896;SDS011;39629;51.400;5.494;2023-07-13T09:41:36;6.55;;;2.13;;
47896;SDS011;39629;51.400;5.494;2023-07-13T09:46:52;3.20;;;1.58;;
47896;SDS011;39629;51.400;5.494;2023-07-13T09:51:59;3.78;;;1.58;;
47896;SDS011;39629;51.400;5.494;2023-07-13T09:57:11;4.40;;;1.30;;
47896;SDS011;39629;51.400;5.494;2023-07-13T10:02:25;4.93;;;1.40;;
47896;SDS011;39629;51.400;5.494;2023-07-13T10:07:30;7.72;;;1.30;;
47896;SDS011;39629;51.400;5.494;2023-07-13T10:12:35;4.60;;;1.27;;
47896;SDS011;39629;51.400;5.494;2023-07-13T10:17:41;6.03;;;1.35;;
47896;SDS011;39629;51.400;5.494;2023-07-13T10:22:53;4.63;;;1.20;;
47896;SDS011;39629;51.400;5.494;2023-07-13T10:28:02;5.88;;;1.40;;
47896;SDS011;39629;51.400;5.494;2023-07-13T10:33:12;4.32;;;1.00;;
47896;SDS011;39629;51.400;5.494;2023-07-13T10:38:18;3.67;;;1.20;;
47896;SDS011;39629;51.400;5.494;2023-07-13T10:43:25;3.47;;;1.08;;
47896;SDS011;39629;51.400;5.494;2023-07-13T10:48:32;4.40;;;1.10;;
47896;SDS011;39629;51.400;5.494;2023-07-13T10:53:37;4.32;;;1.02;;
47896;SDS011;39629;51.400;5.494;2023-07-13T10:58:41;3.65;;;0.82;;
47896;SDS011;39629;51.400;5.494;2023-07-13T11:03:49;2.63;;;0.90;;
47896;SDS011;39629;51.400;5.494;2023-07-13T11:08:57;4.37;;;1.20;;
47896;SDS011;39629;51.400;5.494;2023-07-13T11:14:07;4.28;;;1.10;;
47896;SDS011;39629;51.400;5.494;2023-07-13T11:24:54;3.58;;;1.08;;
47896;SDS011;39629;51.400;5.494;2023-07-13T11:30:07;2.63;;;1.10;;
47896;SDS011;39629;51.400;5.494;2023-07-13T11:35:35;4.90;;;1.05;;
47896;SDS011;39629;51.400;5.494;2023-07-13T11:40:39;2.53;;;1.00;;
47896;SDS011;39629;51.400;5.494;2023-07-13T11:45:41;3.40;;;1.10;;
47896;SDS011;39629;51.400;5.494;2023-07-13T11:50:48;3.30;;;0.93;;
47896;SDS011;39629;51.400;5.494;2023-07-13T11:55:52;3.30;;;1.00;;
47896;SDS011;39629;51.400;5.494;2023-07-13T12:00:55;2.38;;;0.90;;
47896;SDS011;39629;51.400;5.494;2023-07-13T12:06:03;2.20;;;0.90;;
47896;SDS011;39629;51.400;5.494;2023-07-13T12:11:11;2.47;;;0.80;;
47896;SDS011;39629;51.400;5.494;2023-07-13T12:16:20;3.55;;;1.00;;
47896;SDS011;39629;51.400;5.494;2023-07-13T12:21:32;4.57;;;0.90;;
47896;SDS011;39629;51.400;5.494;2023-07-13T12:26:36;2.30;;;1.02;;
47896;SDS011;39629;51.400;5.494;2023-07-13T12:31:40;3.17;;;1.00;;
47896;SDS011;39629;51.400;5.494;2023-07-13T12:36:49;1.83;;;0.75;;
47896;SDS011;39629;51.400;5.494;2023-07-13T12:41:53;3.13;;;0.90;;
47896;SDS011;39629;51.400;5.494;2023-07-13T12:46:56;4.03;;;0.98;;
47896;SDS011;39629;51.400;5.494;2023-07-13T12:52:02;2.58;;;1.00;;
47896;SDS011;39629;51.400;5.494;2023-07-13T12:57:05;3.00;;;0.90;;
47896;SDS011;39629;51.400;5.494;2023-07-13T13:02:17;2.33;;;0.80;;
47896;SDS011;39629;51.400;5.494;2023-07-13T13:07:29;3.40;;;1.05;;
47896;SDS011;39629;51.400;5.494;2023-07-13T13:12:34;3.60;;;1.15;;
47896;SDS011;39629;51.400;5.494;2023-07-13T13:17:37;3.10;;;1.20;;
47896;SDS011;39629;51.400;5.494;2023-07-13T13:22:41;2.83;;;1.42;;
47896;SDS011;39629;51.400;5.494;2023-07-13T13:27:43;3.97;;;1.20;;
47896;SDS011;39629;51.400;5.494;2023-07-13T13:32:47;4.32;;;1.30;;
47896;SDS011;39629;51.400;5.494;2023-07-13T13:37:51;3.78;;;1.40;;
47896;SDS011;39629;51.400;5.494;2023-07-13T13:42:53;3.13;;;1.50;;
47896;SDS011;39629;51.400;5.494;2023-07-13T13:47:56;3.40;;;1.80;;
47896;SDS011;39629;51.400;5.494;2023-07-13T13:53:01;4.50;;;1.30;;
47896;SDS011;39629;51.400;5.494;2023-07-13T14:03:08;4.53;;;1.17;;
47896;SDS011;39629;51.400;5.494;2023-07-13T14:08:17;2.50;;;1.10;;
47896;SDS011;39629;51.400;5.494;2023-07-13T14:13:21;4.22;;;1.10;;
47896;SDS011;39629;51.400;5.494;2023-07-13T14:18:27;2.03;;;1.00;;
47896;SDS011;39629;51.400;5.494;2023-07-13T14:23:31;3.72;;;1.20;;
47896;SDS011;39629;51.400;5.494;2023-07-13T14:28:41;1.65;;;1.00;;
47896;SDS011;39629;51.400;5.494;2023-07-13T14:33:44;4.10;;;1.35;;
47896;SDS011;39629;51.400;5.494;2023-07-13T14:43:50;3.00;;;1.02;;
47896;SDS011;39629;51.400;5.494;2023-07-13T14:48:52;2.63;;;1.00;;
47896;SDS011;39629;51.400;5.494;2023-07-13T14:54:02;1.67;;;0.90;;
47896;SDS011;39629;51.400;5.494;2023-07-13T14:59:06;1.80;;;1.00;;
47896;SDS011;39629;51.400;5.494;2023-07-13T15:04:08;3.05;;;1.00;;
47896;SDS011;39629;51.400;5.494;2023-07-13T15:09:11;1.77;;;0.98;;
47896;SDS011;39629;51.400;5.494;2023-07-13T15:19:16;4.78;;;1.02;;
47896;SDS011;39629;51.400;5.494;2023-07-13T15:24:21;1.88;;;0.80;;
47896;SDS011;39629;51.400;5.494;2023-07-13T15:29:23;2.60;;;0.80;;
47896;SDS011;39629;51.400;5.494;2023-07-13T15:34:25;2.08;;;0.80;;
47896;SDS011;39629;51.400;5.494;2023-07-13T15:39:29;3.47;;;0.80;;
47896;SDS011;39629;51.400;5.494;2023-07-13T15:44:31;3.22;;;0.82;;
47896;SDS011;39629;51.400;5.494;2023-07-13T15:49:34;2.43;;;1.20;;
47896;SDS011;39629;51.400;5.494;2023-07-13T15:54:39;3.95;;;1.30;;
47896;SDS011;39629;51.400;5.494;2023-07-13T15:59:41;1.50;;;1.00;;
47896;SDS011;39629;51.400;5.494;2023-07-13T16:04:43;3.30;;;1.30;;
47896;SDS011;39629;51.400;5.494;2023-07-13T16:09:47;3.05;;;1.30;;
47896;SDS011;39629;51.400;5.494;2023-07-13T16:14:50;3.60;;;1.20;;
47896;SDS011;39629;51.400;5.494;2023-07-13T16:19:52;4.28;;;1.45;;
47896;SDS011;39629;51.400;5.494;2023-07-13T16:24:57;3.50;;;1.30;;
47896;SDS011;39629;51.400;5.494;2023-07-13T16:30:05;2.65;;;1.10;;
47896;SDS011;39629;51.400;5.494;2023-07-13T16:35:13;2.15;;;0.93;;
47896;SDS011;39629;51.400;5.494;2023-07-13T16:40:21;4.18;;;1.30;;
47896;SDS011;39629;51.400;5.494;2023-07-13T16:45:25;2.60;;;1.20;;
47896;SDS011;39629;51.400;5.494;2023-07-13T16:50:32;2.67;;;1.20;;
47896;SDS011;39629;51.400;5.494;2023-07-13T16:55:36;3.17;;;1.48;;
47896;SDS011;39629;51.400;5.494;2023-07-13T17:00:38;2.92;;;1.38;;
47896;SDS011;39629;51.400;5.494;2023-07-13T17:05:42;3.70;;;1.40;;
47896;SDS011;39629;51.400;5.494;2023-07-13T17:10:47;3.13;;;1.40;;
47896;SDS011;39629;51.400;5.494;2023-07-13T17:15:51;4.10;;;1.20;;
47896;SDS011;39629;51.400;5.494;2023-07-13T17:20:56;3.55;;;1.25;;
47896;SDS011;39629;51.400;5.494;2023-07-13T17:26:00;2.70;;;1.20;;
47896;SDS011;39629;51.400;5.494;2023-07-13T17:31:03;3.00;;;1.48;;
47896;SDS011;39629;51.400;5.494;2023-07-13T17:36:10;5.00;;;1.55;;
47896;SDS011;39629;51.400;5.494;2023-07-13T17:41:14;2.90;;;1.35;;
47896;SDS011;39629;51.400;5.494;2023-07-13T17:46:17;2.08;;;1.38;;
47896;SDS011;39629;51.400;5.494;2023-07-13T17:51:24;3.45;;;1.20;;
47896;SDS011;39629;51.400;5.494;2023-07-13T18:01:32;2.80;;;1.30;;
47896;SDS011;39629;51.400;5.494;2023-07-13T18:06:42;3.13;;;1.30;;
47896;SDS011;39629;51.400;5.494;2023-07-13T18:11:54;3.35;;;1.30;;
47896;SDS011;39629;51.400;5.494;2023-07-13T18:16:58;2.25;;;1.20;;
47896;SDS011;39629;51.400;5.494;2023-07-13T18:22:01;2.87;;;1.33;;
47896;SDS011;39629;51.400;5.494;2023-07-13T18:27:06;2.33;;;1.13;;
47896;SDS011;39629;51.400;5.494;2023-07-13T18:32:09;2.85;;;1.35;;
47896;SDS011;39629;51.400;5.494;2023-07-13T18:42:48;2.45;;;1.35;;
47896;SDS011;39629;51.400;5.494;2023-07-13T18:47:51;2.70;;;1.38;;
47896;SDS011;39629;51.400;5.494;2023-07-13T18:52:58;2.63;;;1.40;;
47896;SDS011;39629;51.400;5.494;2023-07-13T18:58:02;3.08;;;1.50;;
47896;SDS011;39629;51.400;5.494;2023-07-13T19:03:06;2.70;;;1.30;;
47896;SDS011;39629;51.400;5.494;2023-07-13T19:08:16;3.03;;;1.45;;
47896;SDS011;39629;51.400;5.494;2023-07-13T19:13:23;2.80;;;1.13;;
47896;SDS011;39629;51.400;5.494;2023-07-13T19:18:27;2.70;;;1.40;;
47896;SDS011;39629;51.400;5.494;2023-07-13T19:23:31;4.70;;;1.70;;
47896;SDS011;39629;51.400;5.494;2023-07-13T19:28:38;3.60;;;1.90;;
47896;SDS011;39629;51.400;5.494;2023-07-13T19:33:41;3.13;;;1.50;;
47896;SDS011;39629;51.400;5.494;2023-07-13T19:38:43;4.40;;;1.75;;
47896;SDS011;39629;51.400;5.494;2023-07-13T19:43:48;3.20;;;1.52;;
47896;SDS011;39629;51.400;5.494;2023-07-13T19:48:51;4.40;;;1.67;;
47896;SDS011;39629;51.400;5.494;2023-07-13T19:53:54;3.78;;;1.75;;
47896;SDS011;39629;51.400;5.494;2023-07-13T19:59:04;5.40;;;1.50;;
47896;SDS011;39629;51.400;5.494;2023-07-13T20:05:16;2.35;;;1.30;;
47896;SDS011;39629;51.400;5.494;2023-07-13T20:15:25;2.28;;;1.30;;
47896;SDS011;39629;51.400;5.494;2023-07-13T20:20:31;2.75;;;1.60;;
47896;SDS011;39629;51.400;5.494;2023-07-13T20:25:35;2.95;;;1.40;;
47896;SDS011;39629;51.400;5.494;2023-07-13T20:30:39;3.15;;;1.55;;
47896;SDS011;39629;51.400;5.494;2023-07-13T20:35:44;2.78;;;1.40;;
47896;SDS011;39629;51.400;5.494;2023-07-13T20:40:47;2.53;;;1.60;;
47896;SDS011;39629;51.400;5.494;2023-07-13T20:45:55;3.38;;;1.80;;
47896;SDS011;39629;51.400;5.494;2023-07-13T20:50:59;3.45;;;1.63;;
47896;SDS011;39629;51.400;5.494;2023-07-13T20:56:04;4.53;;;1.50;;
47896;SDS011;39629;51.400;5.494;2023-07-13T21:01:15;4.28;;;1.90;;
47896;SDS011;39629;51.400;5.494;2023-07-13T21:06:21;3.20;;;1.38;;
47896;SDS011;39629;51.400;5.494;2023-07-13T21:11:23;3.45;;;1.80;;
47896;SDS011;39629;51.400;5.494;2023-07-13T21:16:27;6.20;;;2.00;;
47896;SDS011;39629;51.400;5.494;2023-07-13T21:21:31;21.27;;;9.20;;
47896;SDS011;39629;51.400;5.494;2023-07-13T21:26:33;6.90;;;2.67;;
47896;SDS011;39629;51.400;5.494;2023-07-13T21:31:36;6.85;;;2.63;;
47896;SDS011;39629;51.400;5.494;2023-07-13T21:36:38;3.50;;;2.07;;
47896;SDS011;39629;51.400;5.494;2023-07-13T21:41:41;5.88;;;2.90;;
47896;SDS011;39629;51.400;5.494;2023-07-13T21:46:45;4.55;;;2.65;;
47896;SDS011;39629;51.400;5.494;2023-07-13T21:51:47;5.10;;;2.60;;
47896;SDS011;39629;51.400;5.494;2023-07-13T21:56:50;6.78;;;3.35;;
47896;SDS011;39629;51.400;5.494;2023-07-13T22:01:53;5.05;;;2.88;;
47896;SDS011;39629;51.400;5.494;2023-07-13T22:06:56;5.75;;;3.05;;
47896;SDS011;39629;51.400;5.494;2023-07-13T22:11:59;4.93;;;2.73;;
47896;SDS011;39629;51.400;5.494;2023-07-13T22:17:04;4.57;;;2.67;;
47896;SDS011;39629;51.400;5.494;2023-07-13T22:27:09;4.65;;;3.03;;
47896;SDS011;39629;51.400;5.494;2023-07-13T22:32:13;5.65;;;2.50;;
47896;SDS011;39629;51.400;5.494;2023-07-13T22:37:16;4.63;;;2.33;;
47896;SDS011;39629;51.400;5.494;2023-07-13T22:42:19;6.25;;;3.10;;
47896;SDS011;39629;51.400;5.494;2023-07-13T22:47:22;5.00;;;2.85;;
47896;SDS011;39629;51.400;5.494;2023-07-13T22:52:24;4.63;;;2.55;;
47896;SDS011;39629;51.400;5.494;2023-07-13T22:57:26;3.58;;;1.98;;
47896;SDS011;39629;51.400;5.494;2023-07-13T23:02:30;4.53;;;2.60;;
47896;SDS011;39629;51.400;5.494;2023-07-13T23:07:32;3.70;;;2.30;;
47896;SDS011;39629;51.400;5.494;2023-07-13T23:12:34;4.13;;;2.63;;
47896;SDS011;39629;51.400;5.494;2023-07-13T23:17:38;3.65;;;2.58;;
47896;SDS011;39629;51.400;5.494;2023-07-13T23:22:43;4.80;;;2.45;;
47896;SDS011;39629;51.400;5.494;2023-07-13T23:28:04;3.20;;;2.28;;
47896;SDS011;39629;51.400;5.494;2023-07-13T23:33:12;3.90;;;2.72;;
47896;SDS011;39629;51.400;5.494;2023-07-13T23:38:21;2.93;;;1.93;;
47896;SDS011;39629;51.400;5.494;2023-07-13T23:43:23;3.00;;;2.17;;
47896;SDS011;39629;51.400;5.494;2023-07-13T23:48:27;5.05;;;2.75;;
47896;SDS011;39629;51.400;5.494;2023-07-13T23:53:30;4.20;;;2.70;;
47896;SDS011;39629;51.400;5.494;2023-07-13T23:58:32;5.10;;;2.53;;
